sensor_id;sensor_type;location;lat;lon;timestamp;temperature;humidity
73568;SHT30;61847;54.994;73.310;2022-12-16T00:01:25;-22.14;73.48
73568;SHT30;61847;54.994;73.310;2022-12-16T00:04:01;-22.28;73.31
73568;SHT30;61847;54.994;73.310;2022-12-16T00:06:32;-22.20;73.15
73568;SHT30;61847;54.994;73.310;2022-12-16T00:09:08;-22.26;73.02
73568;SHT30;61847;54.994;73.310;2022-12-16T00:11:35;-22.32;73.05
73568;SHT30;61847;54.994;73.310;2022-12-16T00:14:01;-22.34;73.12
73568;SHT30;61847;54.994;73.310;2022-12-16T00:16:27;-22.44;73.06
73568;SHT30;61847;54.994;73.310;2022-12-16T00:18:54;-22.54;73.09
73568;SHT30;61847;54.994;73.310;2022-12-16T00:21:20;-22.51;73.20
73568;SHT30;61847;54.994;73.310;2022-12-16T00:23:55;-22.54;73.35
73568;SHT30;61847;54.994;73.310;2022-12-16T00:26:22;-22.50;73.34
73568;SHT30;61847;54.994;73.310;2022-12-16T00:28:48;-22.56;73.21
73568;SHT30;61847;54.994;73.310;2022-12-16T00:31:15;-22.51;73.13
73568;SHT30;61847;54.994;73.310;2022-12-16T00:33:41;-22.51;72.92
73568;SHT30;61847;54.994;73.310;2022-12-16T00:36:08;-22.50;72.75
73568;SHT30;61847;54.994;73.310;2022-12-16T00:38:39;-22.54;72.59
73568;SHT30;61847;54.994;73.310;2022-12-16T00:41:06;-22.49;72.65
73568;SHT30;61847;54.994;73.310;2022-12-16T00:43:37;-22.44;72.67
73568;SHT30;61847;54.994;73.310;2022-12-16T00:46:04;-22.41;72.79
73568;SHT30;61847;54.994;73.310;2022-12-16T00:48:30;-22.39;72.94
73568;SHT30;61847;54.994;73.310;2022-12-16T00:50:59;-22.36;72.73
73568;SHT30;61847;54.994;73.310;2022-12-16T00:53:26;-22.37;72.69
73568;SHT30;61847;54.994;73.310;2022-12-16T00:56:03;-22.29;72.48
73568;SHT30;61847;54.994;73.310;2022-12-16T00:58:30;-22.36;72.27
73568;SHT30;61847;54.994;73.310;2022-12-16T01:00:56;-22.33;72.40
73568;SHT30;61847;54.994;73.310;2022-12-16T01:03:23;-22.39;72.21
73568;SHT30;61847;54.994;73.310;2022-12-16T01:05:49;-22.44;72.48
73568;SHT30;61847;54.994;73.310;2022-12-16T01:08:19;-22.40;72.53
73568;SHT30;61847;54.994;73.310;2022-12-16T01:10:55;-22.40;72.26
73568;SHT30;61847;54.994;73.310;2022-12-16T01:13:23;-22.43;72.14
73568;SHT30;61847;54.994;73.310;2022-12-16T01:15:49;-22.51;72.16
73568;SHT30;61847;54.994;73.310;2022-12-16T01:18:16;-22.60;72.50
73568;SHT30;61847;54.994;73.310;2022-12-16T01:20:47;-22.61;73.00
73568;SHT30;61847;54.994;73.310;2022-12-16T01:23:13;-22.60;72.89
73568;SHT30;61847;54.994;73.310;2022-12-16T01:25:40;-22.60;72.79
73568;SHT30;61847;54.994;73.310;2022-12-16T01:28:06;-22.60;72.90
73568;SHT30;61847;54.994;73.310;2022-12-16T01:30:45;-22.65;72.77
73568;SHT30;61847;54.994;73.310;2022-12-16T01:33:12;-22.68;72.88
73568;SHT30;61847;54.994;73.310;2022-12-16T01:35:38;-22.71;73.11
73568;SHT30;61847;54.994;73.310;2022-12-16T01:38:04;-22.65;72.97
73568;SHT30;61847;54.994;73.310;2022-12-16T01:40:30;-22.60;72.94
73568;SHT30;61847;54.994;73.310;2022-12-16T01:42:57;-22.54;72.86
73568;SHT30;61847;54.994;73.310;2022-12-16T01:45:33;-22.56;72.70
73568;SHT30;61847;54.994;73.310;2022-12-16T01:48:06;-22.57;72.46
73568;SHT30;61847;54.994;73.310;2022-12-16T01:50:39;-22.56;72.28
73568;SHT30;61847;54.994;73.310;2022-12-16T01:53:07;-22.49;72.26
73568;SHT30;61847;54.994;73.310;2022-12-16T01:55:37;-22.53;71.86
73568;SHT30;61847;54.994;73.310;2022-12-16T01:58:11;-22.58;71.95
73568;SHT30;61847;54.994;73.310;2022-12-16T02:00:39;-22.56;72.22
73568;SHT30;61847;54.994;73.310;2022-12-16T02:03:06;-22.61;72.03
73568;SHT30;61847;54.994;73.310;2022-12-16T02:05:43;-22.54;72.28
73568;SHT30;61847;54.994;73.310;2022-12-16T02:08:16;-22.58;72.41
73568;SHT30;61847;54.994;73.310;2022-12-16T02:21:58;-22.56;72.20
73568;SHT30;61847;54.994;73.310;2022-12-16T02:27:38;-22.54;72.47
73568;SHT30;61847;54.994;73.310;2022-12-16T02:30:29;-22.51;72.72
73568;SHT30;61847;54.994;73.310;2022-12-16T02:39:09;-22.60;72.91
73568;SHT30;61847;54.994;73.310;2022-12-16T02:44:54;-22.68;72.13
73568;SHT30;61847;54.994;73.310;2022-12-16T02:47:23;-22.63;72.23
73568;SHT30;61847;54.994;73.310;2022-12-16T02:49:51;-22.71;71.95
73568;SHT30;61847;54.994;73.310;2022-12-16T02:52:30;-22.65;72.10
73568;SHT30;61847;54.994;73.310;2022-12-16T02:55:05;-22.71;71.92
73568;SHT30;61847;54.994;73.310;2022-12-16T02:58:37;-22.69;72.03
73568;SHT30;61847;54.994;73.310;2022-12-16T03:00:53;-22.71;72.01
73568;SHT30;61847;54.994;73.310;2022-12-16T03:03:53;-22.74;71.92
73568;SHT30;61847;54.994;73.310;2022-12-16T03:06:26;-22.79;71.98
73568;SHT30;61847;54.994;73.310;2022-12-16T03:08:57;-22.82;71.91
73568;SHT30;61847;54.994;73.310;2022-12-16T03:11:36;-22.89;72.03
73568;SHT30;61847;54.994;73.310;2022-12-16T03:14:04;-22.88;72.09
73568;SHT30;61847;54.994;73.310;2022-12-16T03:16:32;-22.91;71.90
73568;SHT30;61847;54.994;73.310;2022-12-16T03:19:05;-22.95;72.12
73568;SHT30;61847;54.994;73.310;2022-12-16T03:21:59;-22.95;72.07
73568;SHT30;61847;54.994;73.310;2022-12-16T03:24:32;-22.85;72.30
73568;SHT30;61847;54.994;73.310;2022-12-16T03:27:18;-22.88;72.03
73568;SHT30;61847;54.994;73.310;2022-12-16T03:30:05;-22.92;71.89
73568;SHT30;61847;54.994;73.310;2022-12-16T03:32:36;-22.95;72.01
73568;SHT30;61847;54.994;73.310;2022-12-16T03:35:13;-22.95;71.99
73568;SHT30;61847;54.994;73.310;2022-12-16T03:37:41;-23.00;72.30
73568;SHT30;61847;54.994;73.310;2022-12-16T03:40:10;-22.96;72.16
73568;SHT30;61847;54.994;73.310;2022-12-16T03:42:38;-22.88;71.99
73568;SHT30;61847;54.994;73.310;2022-12-16T03:45:12;-22.88;71.82
73568;SHT30;61847;54.994;73.310;2022-12-16T03:47:41;-22.81;71.80
73568;SHT30;61847;54.994;73.310;2022-12-16T03:50:13;-22.84;71.50
73568;SHT30;61847;54.994;73.310;2022-12-16T03:52:39;-22.87;71.38
73568;SHT30;61847;54.994;73.310;2022-12-16T03:55:06;-22.82;71.42
73568;SHT30;61847;54.994;73.310;2022-12-16T03:57:43;-22.85;71.15
73568;SHT30;61847;54.994;73.310;2022-12-16T04:00:14;-22.91;71.52
73568;SHT30;61847;54.994;73.310;2022-12-16T04:02:41;-22.87;71.62
73568;SHT30;61847;54.994;73.310;2022-12-16T04:05:08;-22.89;71.23
73568;SHT30;61847;54.994;73.310;2022-12-16T04:07:40;-22.89;71.45
73568;SHT30;61847;54.994;73.310;2022-12-16T04:10:07;-22.92;71.15
73568;SHT30;61847;54.994;73.310;2022-12-16T04:12:33;-22.92;70.93
73568;SHT30;61847;54.994;73.310;2022-12-16T04:15:18;-22.96;71.14
73568;SHT30;61847;54.994;73.310;2022-12-16T04:18:03;-22.96;71.00
73568;SHT30;61847;54.994;73.310;2022-12-16T04:20:54;-22.94;70.86
73568;SHT30;61847;54.994;73.310;2022-12-16T04:23:46;-22.96;70.78
73568;SHT30;61847;54.994;73.310;2022-12-16T04:26:32;-23.03;71.18
73568;SHT30;61847;54.994;73.310;2022-12-16T04:29:19;-23.02;70.72
73568;SHT30;61847;54.994;73.310;2022-12-16T04:31:45;-22.95;70.78
73568;SHT30;61847;54.994;73.310;2022-12-16T04:34:16;-22.95;70.40
73568;SHT30;61847;54.994;73.310;2022-12-16T04:36:57;-23.05;70.19
73568;SHT30;61847;54.994;73.310;2022-12-16T04:39:42;-23.10;70.25
73568;SHT30;61847;54.994;73.310;2022-12-16T04:42:27;-22.94;70.16
73568;SHT30;61847;54.994;73.310;2022-12-16T04:45:23;-23.13;70.09
73568;SHT30;61847;54.994;73.310;2022-12-16T04:48:07;-23.22;70.16
73568;SHT30;61847;54.994;73.310;2022-12-16T04:50:52;-23.24;70.44
73568;SHT30;61847;54.994;73.310;2022-12-16T04:53:39;-23.16;70.30
73568;SHT30;61847;54.994;73.310;2022-12-16T04:56:23;-23.19;70.30
73568;SHT30;61847;54.994;73.310;2022-12-16T04:59:12;-23.24;69.87
73568;SHT30;61847;54.994;73.310;2022-12-16T05:01:57;-23.27;70.09
73568;SHT30;61847;54.994;73.310;2022-12-16T05:04:42;-23.31;70.10
73568;SHT30;61847;54.994;73.310;2022-12-16T05:07:31;-23.30;70.34
73568;SHT30;61847;54.994;73.310;2022-12-16T05:10:26;-23.26;70.15
73568;SHT30;61847;54.994;73.310;2022-12-16T05:13:11;-23.30;70.35
73568;SHT30;61847;54.994;73.310;2022-12-16T05:15:56;-23.27;70.11
73568;SHT30;61847;54.994;73.310;2022-12-16T05:18:41;-23.20;70.11
73568;SHT30;61847;54.994;73.310;2022-12-16T05:21:31;-23.23;69.67
73568;SHT30;61847;54.994;73.310;2022-12-16T05:24:26;-23.27;69.48
73568;SHT30;61847;54.994;73.310;2022-12-16T05:27:11;-23.30;69.92
73568;SHT30;61847;54.994;73.310;2022-12-16T05:29:55;-23.31;70.30
73568;SHT30;61847;54.994;73.310;2022-12-16T05:32:49;-23.22;69.94
73568;SHT30;61847;54.994;73.310;2022-12-16T05:35:34;-23.10;69.75
73568;SHT30;61847;54.994;73.310;2022-12-16T05:38:28;-23.10;69.83
73568;SHT30;61847;54.994;73.310;2022-12-16T05:41:13;-23.03;69.71
73568;SHT30;61847;54.994;73.310;2022-12-16T05:44:08;-22.94;69.22
73568;SHT30;61847;54.994;73.310;2022-12-16T05:46:53;-22.87;68.88
73568;SHT30;61847;54.994;73.310;2022-12-16T05:49:37;-22.75;68.49
73568;SHT30;61847;54.994;73.310;2022-12-16T05:52:31;-22.74;68.12
73568;SHT30;61847;54.994;73.310;2022-12-16T05:55:16;-22.69;67.97
73568;SHT30;61847;54.994;73.310;2022-12-16T05:58:10;-22.65;67.87
73568;SHT30;61847;54.994;73.310;2022-12-16T06:01:05;-22.75;68.04
73568;SHT30;61847;54.994;73.310;2022-12-16T06:03:56;-22.63;68.24
73568;SHT30;61847;54.994;73.310;2022-12-16T06:06:40;-22.56;67.83
73568;SHT30;61847;54.994;73.310;2022-12-16T06:09:25;-22.58;67.75
73568;SHT30;61847;54.994;73.310;2022-12-16T06:12:15;-22.54;67.60
73568;SHT30;61847;54.994;73.310;2022-12-16T06:14:59;-22.49;67.59
73568;SHT30;61847;54.994;73.310;2022-12-16T06:17:47;-22.41;67.73
73568;SHT30;61847;54.994;73.310;2022-12-16T06:20:34;-22.41;67.47
73568;SHT30;61847;54.994;73.310;2022-12-16T06:23:28;-22.40;67.32
73568;SHT30;61847;54.994;73.310;2022-12-16T06:26:13;-22.36;67.18
73568;SHT30;61847;54.994;73.310;2022-12-16T06:28:57;-22.40;67.10
73568;SHT30;61847;54.994;73.310;2022-12-16T06:31:47;-22.53;67.32
73568;SHT30;61847;54.994;73.310;2022-12-16T06:34:31;-22.50;67.79
73568;SHT30;61847;54.994;73.310;2022-12-16T06:37:16;-22.43;67.54
73568;SHT30;61847;54.994;73.310;2022-12-16T06:40:01;-22.40;67.63
73568;SHT30;61847;54.994;73.310;2022-12-16T06:42:46;-22.43;67.63
73568;SHT30;61847;54.994;73.310;2022-12-16T06:45:41;-22.34;67.82
73568;SHT30;61847;54.994;73.310;2022-12-16T06:48:25;-22.30;67.40
73568;SHT30;61847;54.994;73.310;2022-12-16T06:51:10;-22.36;67.45
73568;SHT30;61847;54.994;73.310;2022-12-16T06:54:00;-22.23;67.59
73568;SHT30;61847;54.994;73.310;2022-12-16T06:56:44;-22.19;67.48
73568;SHT30;61847;54.994;73.310;2022-12-16T06:59:29;-22.19;67.42
73568;SHT30;61847;54.994;73.310;2022-12-16T07:02:13;-22.19;67.22
73568;SHT30;61847;54.994;73.310;2022-12-16T07:04:59;-22.20;67.21
73568;SHT30;61847;54.994;73.310;2022-12-16T07:07:48;-22.29;67.49
73568;SHT30;61847;54.994;73.310;2022-12-16T07:10:32;-22.26;67.26
73568;SHT30;61847;54.994;73.310;2022-12-16T07:13:21;-22.25;67.42
73568;SHT30;61847;54.994;73.310;2022-12-16T07:16:06;-22.17;67.38
73568;SHT30;61847;54.994;73.310;2022-12-16T07:18:50;-22.17;67.15
73568;SHT30;61847;54.994;73.310;2022-12-16T07:21:35;-22.09;67.11
73568;SHT30;61847;54.994;73.310;2022-12-16T07:24:19;-22.02;67.24
73568;SHT30;61847;54.994;73.310;2022-12-16T07:27:04;-22.09;66.63
73568;SHT30;61847;54.994;73.310;2022-12-16T07:29:54;-22.01;67.18
73568;SHT30;61847;54.994;73.310;2022-12-16T07:32:38;-21.96;66.94
73568;SHT30;61847;54.994;73.310;2022-12-16T07:35:23;-21.99;66.74
73568;SHT30;61847;54.994;73.310;2022-12-16T07:38:08;-22.09;66.94
73568;SHT30;61847;54.994;73.310;2022-12-16T07:40:53;-22.13;67.31
73568;SHT30;61847;54.994;73.310;2022-12-16T07:43:38;-21.95;67.50
73568;SHT30;61847;54.994;73.310;2022-12-16T07:46:23;-21.82;67.18
73568;SHT30;61847;54.994;73.310;2022-12-16T07:49:07;-21.82;67.13
73568;SHT30;61847;54.994;73.310;2022-12-16T07:51:52;-21.78;67.24
73568;SHT30;61847;54.994;73.310;2022-12-16T07:54:36;-21.82;66.78
73568;SHT30;61847;54.994;73.310;2022-12-16T07:57:21;-21.81;66.96
73568;SHT30;61847;54.994;73.310;2022-12-16T08:00:06;-21.77;67.25
73568;SHT30;61847;54.994;73.310;2022-12-16T08:02:58;-21.81;67.07
73568;SHT30;61847;54.994;73.310;2022-12-16T08:05:51;-21.77;67.14
73568;SHT30;61847;54.994;73.310;2022-12-16T08:08:43;-21.71;67.46
73568;SHT30;61847;54.994;73.310;2022-12-16T08:11:27;-21.70;67.30
73568;SHT30;61847;54.994;73.310;2022-12-16T08:14:12;-21.58;67.04
73568;SHT30;61847;54.994;73.310;2022-12-16T08:16:57;-21.50;66.96
73568;SHT30;61847;54.994;73.310;2022-12-16T08:19:51;-21.49;66.98
73568;SHT30;61847;54.994;73.310;2022-12-16T08:22:40;-21.51;66.68
73568;SHT30;61847;54.994;73.310;2022-12-16T08:25:35;-21.42;67.11
73568;SHT30;61847;54.994;73.310;2022-12-16T08:28:19;-21.40;66.18
73568;SHT30;61847;54.994;73.310;2022-12-16T08:31:04;-21.36;66.62
73568;SHT30;61847;54.994;73.310;2022-12-16T08:33:48;-21.32;66.38
73568;SHT30;61847;54.994;73.310;2022-12-16T08:36:35;-21.23;66.71
73568;SHT30;61847;54.994;73.310;2022-12-16T08:39:26;-21.27;65.89
73568;SHT30;61847;54.994;73.310;2022-12-16T08:42:15;-21.22;66.16
73568;SHT30;61847;54.994;73.310;2022-12-16T08:45:00;-21.20;66.15
73568;SHT30;61847;54.994;73.310;2022-12-16T08:47:45;-21.26;66.14
73568;SHT30;61847;54.994;73.310;2022-12-16T08:50:29;-21.30;66.11
73568;SHT30;61847;54.994;73.310;2022-12-16T08:53:24;-21.27;66.07
73568;SHT30;61847;54.994;73.310;2022-12-16T08:56:09;-21.24;66.01
73568;SHT30;61847;54.994;73.310;2022-12-16T08:58:53;-21.18;66.21
73568;SHT30;61847;54.994;73.310;2022-12-16T09:01:43;-21.08;65.99
73568;SHT30;61847;54.994;73.310;2022-12-16T09:04:28;-21.13;66.01
73568;SHT30;61847;54.994;73.310;2022-12-16T09:07:18;-21.18;65.83
73568;SHT30;61847;54.994;73.310;2022-12-16T09:10:04;-21.05;65.82
73568;SHT30;61847;54.994;73.310;2022-12-16T09:12:50;-21.12;65.79
73568;SHT30;61847;54.994;73.310;2022-12-16T09:15:35;-21.06;66.17
73568;SHT30;61847;54.994;73.310;2022-12-16T09:18:19;-21.08;66.01
73568;SHT30;61847;54.994;73.310;2022-12-16T09:21:04;-21.03;65.98
73568;SHT30;61847;54.994;73.310;2022-12-16T09:23:49;-21.02;66.18
73568;SHT30;61847;54.994;73.310;2022-12-16T09:26:33;-20.96;66.06
73568;SHT30;61847;54.994;73.310;2022-12-16T09:29:18;-21.01;65.97
73568;SHT30;61847;54.994;73.310;2022-12-16T09:32:02;-20.92;66.35
73568;SHT30;61847;54.994;73.310;2022-12-16T09:34:53;-20.94;66.18
73568;SHT30;61847;54.994;73.310;2022-12-16T09:37:47;-20.95;66.55
73568;SHT30;61847;54.994;73.310;2022-12-16T09:40:39;-20.94;66.36
73568;SHT30;61847;54.994;73.310;2022-12-16T09:46:37;-20.91;66.00
73568;SHT30;61847;54.994;73.310;2022-12-16T09:52:33;-20.88;66.62
73568;SHT30;61847;54.994;73.310;2022-12-16T09:55:27;-20.89;66.35
73568;SHT30;61847;54.994;73.310;2022-12-16T09:58:26;-20.91;66.32
73568;SHT30;61847;54.994;73.310;2022-12-16T10:01:13;-21.03;66.42
73568;SHT30;61847;54.994;73.310;2022-12-16T10:03:59;-21.06;66.81
73568;SHT30;61847;54.994;73.310;2022-12-16T10:06:46;-21.06;67.03
73568;SHT30;61847;54.994;73.310;2022-12-16T10:10:01;-21.09;67.12
73568;SHT30;61847;54.994;73.310;2022-12-16T10:13:02;-21.16;67.52
73568;SHT30;61847;54.994;73.310;2022-12-16T10:16:14;-21.19;67.73
73568;SHT30;61847;54.994;73.310;2022-12-16T10:25:37;-21.29;68.31
73568;SHT30;61847;54.994;73.310;2022-12-16T10:28:48;-21.32;68.14
73568;SHT30;61847;54.994;73.310;2022-12-16T10:31:36;-21.36;68.10
73568;SHT30;61847;54.994;73.310;2022-12-16T10:34:31;-21.30;68.31
73568;SHT30;61847;54.994;73.310;2022-12-16T10:37:38;-21.30;68.33
73568;SHT30;61847;54.994;73.310;2022-12-16T10:40:27;-21.36;68.01
73568;SHT30;61847;54.994;73.310;2022-12-16T10:43:34;-21.39;68.14
73568;SHT30;61847;54.994;73.310;2022-12-16T10:46:24;-21.36;68.26
73568;SHT30;61847;54.994;73.310;2022-12-16T10:49:20;-21.36;67.67
73568;SHT30;61847;54.994;73.310;2022-12-16T10:52:05;-21.39;68.12
73568;SHT30;61847;54.994;73.310;2022-12-16T10:55:19;-21.39;68.13
73568;SHT30;61847;54.994;73.310;2022-12-16T10:58:28;-21.39;68.05
73568;SHT30;61847;54.994;73.310;2022-12-16T11:01:24;-21.46;68.62
73568;SHT30;61847;54.994;73.310;2022-12-16T11:04:32;-21.49;68.92
73568;SHT30;61847;54.994;73.310;2022-12-16T11:16:26;-21.46;69.29
73568;SHT30;61847;54.994;73.310;2022-12-16T11:19:24;-21.50;69.35
73568;SHT30;61847;54.994;73.310;2022-12-16T11:22:15;-21.50;69.07
73568;SHT30;61847;54.994;73.310;2022-12-16T11:28:15;-21.50;69.04
73568;SHT30;61847;54.994;73.310;2022-12-16T11:31:13;-21.51;69.17
73568;SHT30;61847;54.994;73.310;2022-12-16T11:33:59;-21.50;69.56
73568;SHT30;61847;54.994;73.310;2022-12-16T11:36:46;-21.50;69.81
73568;SHT30;61847;54.994;73.310;2022-12-16T11:39:33;-21.49;69.90
73568;SHT30;61847;54.994;73.310;2022-12-16T11:42:23;-21.51;70.21
73568;SHT30;61847;54.994;73.310;2022-12-16T11:45:15;-21.46;70.32
73568;SHT30;61847;54.994;73.310;2022-12-16T11:51:22;-21.51;70.26
73568;SHT30;61847;54.994;73.310;2022-12-16T11:54:24;-21.49;70.40
73568;SHT30;61847;54.994;73.310;2022-12-16T11:57:43;-21.47;70.69
73568;SHT30;61847;54.994;73.310;2022-12-16T12:00:32;-21.49;70.77
73568;SHT30;61847;54.994;73.310;2022-12-16T12:03:23;-21.47;70.42
73568;SHT30;61847;54.994;73.310;2022-12-16T12:21:24;-21.57;70.69
73568;SHT30;61847;54.994;73.310;2022-12-16T12:24:38;-21.58;70.61
73568;SHT30;61847;54.994;73.310;2022-12-16T12:27:32;-21.61;70.59
73568;SHT30;61847;54.994;73.310;2022-12-16T12:30:20;-21.58;70.83
73568;SHT30;61847;54.994;73.310;2022-12-16T12:36:05;-21.64;71.02
73568;SHT30;61847;54.994;73.310;2022-12-16T12:39:09;-21.65;70.99
73568;SHT30;61847;54.994;73.310;2022-12-16T12:42:35;-21.67;71.27
73568;SHT30;61847;54.994;73.310;2022-12-16T12:45:43;-21.62;71.59
73568;SHT30;61847;54.994;73.310;2022-12-16T12:48:53;-21.58;71.66
73568;SHT30;61847;54.994;73.310;2022-12-16T12:55:19;-21.49;71.57
73568;SHT30;61847;54.994;73.310;2022-12-16T12:58:06;-21.53;71.56
73568;SHT30;61847;54.994;73.310;2022-12-16T13:00:54;-21.53;71.60
73568;SHT30;61847;54.994;73.310;2022-12-16T13:03:49;-21.49;71.44
73568;SHT30;61847;54.994;73.310;2022-12-16T13:06:38;-21.47;71.14
73568;SHT30;61847;54.994;73.310;2022-12-16T13:09:34;-21.43;71.02
73568;SHT30;61847;54.994;73.310;2022-12-16T13:12:29;-21.47;71.10
73568;SHT30;61847;54.994;73.310;2022-12-16T13:15:37;-21.40;71.24
73568;SHT30;61847;54.994;73.310;2022-12-16T13:18:29;-21.42;71.14
73568;SHT30;61847;54.994;73.310;2022-12-16T13:27:15;-21.47;71.59
73568;SHT30;61847;54.994;73.310;2022-12-16T13:33:01;-21.51;71.69
73568;SHT30;61847;54.994;73.310;2022-12-16T13:35:59;-21.47;71.71
73568;SHT30;61847;54.994;73.310;2022-12-16T13:38:55;-21.51;71.94
73568;SHT30;61847;54.994;73.310;2022-12-16T13:41:48;-21.49;72.09
73568;SHT30;61847;54.994;73.310;2022-12-16T13:50:40;-21.44;71.88
73568;SHT30;61847;54.994;73.310;2022-12-16T13:53:36;-21.43;72.37
73568;SHT30;61847;54.994;73.310;2022-12-16T13:56:32;-21.46;72.31
73568;SHT30;61847;54.994;73.310;2022-12-16T13:59:21;-21.42;72.30
73568;SHT30;61847;54.994;73.310;2022-12-16T14:05:27;-21.39;72.09
73568;SHT30;61847;54.994;73.310;2022-12-16T14:08:16;-21.42;72.16
73568;SHT30;61847;54.994;73.310;2022-12-16T14:11:04;-21.42;72.03
73568;SHT30;61847;54.994;73.310;2022-12-16T14:16:56;-21.37;72.26
73568;SHT30;61847;54.994;73.310;2022-12-16T14:20:10;-21.39;72.26
73568;SHT30;61847;54.994;73.310;2022-12-16T14:23:25;-21.39;72.66
73568;SHT30;61847;54.994;73.310;2022-12-16T14:26:13;-21.36;72.73
73568;SHT30;61847;54.994;73.310;2022-12-16T14:29:20;-21.33;72.41
73568;SHT30;61847;54.994;73.310;2022-12-16T14:32:28;-21.39;72.69
73568;SHT30;61847;54.994;73.310;2022-12-16T14:35:22;-21.42;72.80
73568;SHT30;61847;54.994;73.310;2022-12-16T14:38:28;-21.39;72.70
73568;SHT30;61847;54.994;73.310;2022-12-16T14:41:22;-21.37;72.97
73568;SHT30;61847;54.994;73.310;2022-12-16T14:44:17;-21.37;73.00
73568;SHT30;61847;54.994;73.310;2022-12-16T14:47:17;-21.37;73.25
73568;SHT30;61847;54.994;73.310;2022-12-16T14:50:03;-21.34;73.33
73568;SHT30;61847;54.994;73.310;2022-12-16T14:53:30;-21.36;73.21
73568;SHT30;61847;54.994;73.310;2022-12-16T14:56:22;-21.36;73.24
73568;SHT30;61847;54.994;73.310;2022-12-16T14:59:11;-21.34;73.33
73568;SHT30;61847;54.994;73.310;2022-12-16T15:02:02;-21.34;73.47
73568;SHT30;61847;54.994;73.310;2022-12-16T15:05:03;-21.39;73.33
73568;SHT30;61847;54.994;73.310;2022-12-16T15:07:54;-21.34;73.28
73568;SHT30;61847;54.994;73.310;2022-12-16T15:10:44;-21.40;73.22
73568;SHT30;61847;54.994;73.310;2022-12-16T15:13:29;-21.42;73.41
73568;SHT30;61847;54.994;73.310;2022-12-16T15:16:19;-21.37;73.40
73568;SHT30;61847;54.994;73.310;2022-12-16T15:19:18;-21.36;73.65
73568;SHT30;61847;54.994;73.310;2022-12-16T15:22:04;-21.30;73.53
73568;SHT30;61847;54.994;73.310;2022-12-16T15:24:49;-21.33;73.28
73568;SHT30;61847;54.994;73.310;2022-12-16T15:27:39;-21.30;73.56
73568;SHT30;61847;54.994;73.310;2022-12-16T15:30:35;-21.33;73.46
73568;SHT30;61847;54.994;73.310;2022-12-16T15:33:25;-21.34;73.44
73568;SHT30;61847;54.994;73.310;2022-12-16T15:39:28;-21.30;73.36
73568;SHT30;61847;54.994;73.310;2022-12-16T15:42:23;-21.29;73.40
73568;SHT30;61847;54.994;73.310;2022-12-16T15:45:19;-21.26;73.53
73568;SHT30;61847;54.994;73.310;2022-12-16T15:48:23;-21.26;73.23
73568;SHT30;61847;54.994;73.310;2022-12-16T15:51:30;-21.27;73.66
73568;SHT30;61847;54.994;73.310;2022-12-16T15:54:25;-21.24;73.95
73568;SHT30;61847;54.994;73.310;2022-12-16T15:57:24;-21.29;73.62
73568;SHT30;61847;54.994;73.310;2022-12-16T16:00:28;-21.26;73.75
73568;SHT30;61847;54.994;73.310;2022-12-16T16:03:26;-21.27;73.56
73568;SHT30;61847;54.994;73.310;2022-12-16T16:06:21;-21.29;73.29
73568;SHT30;61847;54.994;73.310;2022-12-16T16:09:29;-21.29;73.44
73568;SHT30;61847;54.994;73.310;2022-12-16T16:12:19;-21.22;73.60
73568;SHT30;61847;54.994;73.310;2022-12-16T16:15:08;-21.30;73.27
73568;SHT30;61847;54.994;73.310;2022-12-16T16:18:00;-21.34;73.03
73568;SHT30;61847;54.994;73.310;2022-12-16T16:20:47;-21.34;73.32
73568;SHT30;61847;54.994;73.310;2022-12-16T16:23:33;-21.36;73.25
73568;SHT30;61847;54.994;73.310;2022-12-16T16:26:28;-21.39;73.21
73568;SHT30;61847;54.994;73.310;2022-12-16T16:29:20;-21.40;73.53
73568;SHT30;61847;54.994;73.310;2022-12-16T16:32:08;-21.36;73.69
73568;SHT30;61847;54.994;73.310;2022-12-16T16:34:52;-21.32;74.12
73568;SHT30;61847;54.994;73.310;2022-12-16T16:37:37;-21.27;74.27
73568;SHT30;61847;54.994;73.310;2022-12-16T16:40:35;-21.27;73.91
73568;SHT30;61847;54.994;73.310;2022-12-16T16:43:20;-21.23;73.74
73568;SHT30;61847;54.994;73.310;2022-12-16T16:49:27;-21.24;73.75
73568;SHT30;61847;54.994;73.310;2022-12-16T16:52:19;-21.22;74.00
73568;SHT30;61847;54.994;73.310;2022-12-16T16:55:17;-21.26;73.31
73568;SHT30;61847;54.994;73.310;2022-12-16T16:58:23;-21.46;73.10
73568;SHT30;61847;54.994;73.310;2022-12-16T17:01:14;-21.51;73.54
73568;SHT30;61847;54.994;73.310;2022-12-16T17:04:09;-21.57;73.71
73568;SHT30;61847;54.994;73.310;2022-12-16T17:06:55;-21.60;73.99
73568;SHT30;61847;54.994;73.310;2022-12-16T17:09:46;-21.75;74.27
73568;SHT30;61847;54.994;73.310;2022-12-16T17:12:31;-21.75;74.73
73568;SHT30;61847;54.994;73.310;2022-12-16T17:15:31;-21.72;74.60
73568;SHT30;61847;54.994;73.310;2022-12-16T17:18:17;-21.75;75.04
73568;SHT30;61847;54.994;73.310;2022-12-16T17:21:02;-21.72;75.02
73568;SHT30;61847;54.994;73.310;2022-12-16T17:23:47;-21.67;74.93
73568;SHT30;61847;54.994;73.310;2022-12-16T17:26:31;-21.67;74.91
73568;SHT30;61847;54.994;73.310;2022-12-16T17:29:27;-21.65;74.93
73568;SHT30;61847;54.994;73.310;2022-12-16T17:32:12;-21.65;74.76
73568;SHT30;61847;54.994;73.310;2022-12-16T17:35:09;-21.64;74.65
73568;SHT30;61847;54.994;73.310;2022-12-16T17:38:04;-21.70;74.90
73568;SHT30;61847;54.994;73.310;2022-12-16T17:40:52;-21.78;75.31
73568;SHT30;61847;54.994;73.310;2022-12-16T17:43:37;-21.83;75.55
73568;SHT30;61847;54.994;73.310;2022-12-16T17:46:21;-21.88;75.88
73568;SHT30;61847;54.994;73.310;2022-12-16T17:49:08;-21.85;75.88
73568;SHT30;61847;54.994;73.310;2022-12-16T17:51:53;-21.92;76.07
73568;SHT30;61847;54.994;73.310;2022-12-16T17:54:38;-21.96;76.48
73568;SHT30;61847;54.994;73.310;2022-12-16T17:57:23;-22.05;76.78
73568;SHT30;61847;54.994;73.310;2022-12-16T18:00:18;-22.13;76.87
73568;SHT30;61847;54.994;73.310;2022-12-16T18:03:13;-22.09;76.80
73568;SHT30;61847;54.994;73.310;2022-12-16T18:05:58;-22.08;76.77
73568;SHT30;61847;54.994;73.310;2022-12-16T18:08:42;-22.03;76.84
73568;SHT30;61847;54.994;73.310;2022-12-16T18:11:27;-22.03;76.72
73568;SHT30;61847;54.994;73.310;2022-12-16T18:14:12;-22.10;76.61
73568;SHT30;61847;54.994;73.310;2022-12-16T18:17:07;-22.13;76.92
73568;SHT30;61847;54.994;73.310;2022-12-16T18:19:52;-22.10;77.19
73568;SHT30;61847;54.994;73.310;2022-12-16T18:22:46;-22.01;76.84
73568;SHT30;61847;54.994;73.310;2022-12-16T18:25:36;-21.99;76.71
73568;SHT30;61847;54.994;73.310;2022-12-16T18:28:31;-22.02;76.54
73568;SHT30;61847;54.994;73.310;2022-12-16T18:31:21;-22.05;76.27
73568;SHT30;61847;54.994;73.310;2022-12-16T18:34:06;-22.14;76.16
73568;SHT30;61847;54.994;73.310;2022-12-16T18:36:50;-22.16;76.15
73568;SHT30;61847;54.994;73.310;2022-12-16T18:39:35;-22.25;76.26